White River, South Dakota
Current Conditions -  °F | °C
As of 8:53 PM on Tuesday 27 Jan 2015 (Local Time) from KICR Reporting Station
Clear Clear  
Wind Chill: 41°   Ceiling: Unl
Heat Index: 46°   Visibility: 10mi
Dew Point: 35°   Wind: 10mph
Humidity: 66%   Direction: 180°S
Pressure: 29.83"   Gusts: NA
Location:  43.57°N, 100.75°W
Report Text: KICR 280353Z AUTO 18009KT 10SM CLR 08/02 A2983 RMK AO2 SLP108 T00780017
Loading
Personal Weather Stations






























Interactive Weather Map New forecast layout! Learn more

10-Day Weather Forecast

Advertisements
Track Severe Weather on mobile